Time;durP1;ratioP1;P1;durP2;ratioP2;P2;SDS_P1;SDS_P2;PMS_P1;PMS_P2;Temp;Humidity;BMP_temperature;BMP_pressure;BME280_temperature;BME280_humidity;BME280_pressure;Samples;Min_cycle;Max_cycle;Signal;HPM_P1;HPM_P2
2022/01/20 00:01:23;;;;;;;17.10;3.40;;;7.30;99.90;;;;;;4962767;29;20219;-96
2022/01/20 00:03:50;;;;;;;17.07;3.03;;;7.30;99.90;;;;;;4947748;29;20226;-96
2022/01/20 00:07:08;;;;;;;18.50;3.30;;;7.40;99.90;;;;;;4948422;29;20179;-96
2022/01/20 00:09:30;;;;;;;15.90;3.07;;;7.30;99.90;;;;;;4969936;29;20185;-95
2022/01/20 00:28:16;;;;;;;18.00;3.67;;;6.90;99.90;;;;;;4955191;29;20655;-81
2022/01/20 00:38:15;;;;;;;13.47;3.40;;;7.00;99.90;;;;;;4954471;29;20530;-81
2022/01/20 00:40:41;;;;;;;18.70;3.77;;;6.90;99.90;;;;;;4937457;29;20671;-82
2022/01/20 00:43:06;;;;;;;9.83;2.20;;;7.00;99.90;;;;;;4937162;29;20179;-81
2022/01/20 00:45:32;;;;;;;15.23;3.40;;;6.90;99.90;;;;;;4954397;29;20187;-82
2022/01/20 00:47:58;;;;;;;14.80;2.87;;;6.90;99.90;;;;;;4937209;29;20194;-82
2022/01/20 00:50:24;;;;;;;9.90;2.20;;;6.70;99.90;;;;;;4937216;29;20246;-82
2022/01/20 00:52:50;;;;;;;15.83;2.83;;;6.70;99.90;;;;;;4937256;29;20199;-81
2022/01/20 00:55:16;;;;;;;28.33;6.43;;;6.60;99.90;;;;;;4937264;29;20182;-82
2022/01/20 00:57:42;;;;;;;15.20;3.30;;;6.50;99.90;;;;;;4937086;29;20179;-82
2022/01/20 01:00:10;;;;;;;14.43;2.53;;;6.60;99.90;;;;;;4936919;29;20532;-81
2022/01/20 01:02:35;;;;;;;25.93;7.83;;;6.60;99.90;;;;;;4937042;28;20183;-82
2022/01/20 01:05:05;;;;;;;13.07;4.40;;;6.60;99.90;;;;;;4940275;29;20548;-81
2022/01/20 01:09:59;;;;;;;20.17;6.07;;;6.50;99.90;;;;;;4958473;29;20175;-82
2022/01/20 01:12:43;;;;;;;24.47;10.60;;;6.60;99.90;;;;;;4941012;29;20270;-81
2022/01/20 01:15:16;;;;;;;12.37;2.80;;;6.60;99.90;;;;;;4940899;29;20545;-81
2022/01/20 01:20:31;;;;;;;22.53;3.10;;;6.60;99.90;;;;;;4928001;29;20218;-81
2022/01/20 01:22:57;;;;;;;16.27;3.50;;;6.60;99.90;;;;;;4958142;29;20245;-82
2022/01/20 01:25:22;;;;;;;19.13;3.37;;;6.50;99.90;;;;;;4941038;29;20218;-82
2022/01/20 01:27:48;;;;;;;15.57;5.40;;;6.50;99.90;;;;;;4958172;29;20632;-81
2022/01/20 01:30:25;;;;;;;21.10;5.80;;;6.60;99.90;;;;;;4940698;29;20243;-81
2022/01/20 01:32:54;;;;;;;17.20;3.30;;;6.60;99.90;;;;;;4940748;29;20238;-82
2022/01/20 01:35:22;;;;;;;13.47;2.80;;;6.60;99.90;;;;;;4957734;29;20190;-82
2022/01/20 01:40:25;;;;;;;26.40;3.37;;;6.30;99.90;;;;;;4957918;29;20210;-82
2022/01/20 01:42:53;;;;;;;20.00;4.07;;;6.30;99.90;;;;;;4940191;29;20187;-82
2022/01/20 01:45:25;;;;;;;17.83;4.57;;;6.20;99.90;;;;;;4957647;29;20175;-82
2022/01/20 01:47:51;;;;;;;25.23;4.00;;;6.20;99.90;;;;;;4940407;29;20194;-83
2022/01/20 01:50:17;;;;;;;21.17;3.50;;;6.20;99.90;;;;;;4957728;29;20182;-80
2022/01/20 01:52:43;;;;;;;21.67;3.50;;;6.30;99.90;;;;;;4957485;29;20563;-82
2022/01/20 01:55:09;;;;;;;24.07;6.73;;;6.30;99.90;;;;;;4940290;29;20186;-81
2022/01/20 01:57:35;;;;;;;15.70;3.33;;;6.40;99.90;;;;;;4957230;29;20175;-82
2022/01/20 02:00:01;;;;;;;23.43;4.33;;;6.40;99.90;;;;;;4940051;29;20211;-82
2022/01/20 02:02:27;;;;;;;20.53;4.00;;;6.50;99.90;;;;;;4940083;29;20231;-81
2022/01/20 02:04:52;;;;;;;22.63;3.77;;;6.60;99.90;;;;;;4957489;29;20195;-82
2022/01/20 02:20:25;;;;;;;21.63;3.67;;;6.70;99.90;;;;;;4957198;29;20698;-81
2022/01/20 02:22:51;;;;;;;27.07;4.67;;;6.60;99.90;;;;;;4939879;29;20175;-81
2022/01/20 02:25:26;;;;;;;14.80;4.03;;;6.50;99.90;;;;;;4956724;29;20551;-81
2022/01/20 02:27:53;;;;;;;15.60;4.20;;;6.50;99.90;;;;;;4939656;29;20523;-83
2022/01/20 02:30:21;;;;;;;15.60;3.70;;;6.50;99.90;;;;;;4956913;29;20163;-81
2022/01/20 02:33:06;;;;;;;11.77;3.40;;;6.50;99.90;;;;;;4956633;29;20199;-82
2022/01/20 02:35:38;;;;;;;22.87;4.57;;;6.50;99.90;;;;;;4939592;29;20187;-82
2022/01/20 02:38:15;;;;;;;12.60;3.37;;;6.50;99.90;;;;;;4956893;29;20645;-82
2022/01/20 02:45:53;;;;;;;15.17;4.20;;;6.60;99.90;;;;;;4956904;29;20262;-82
2022/01/20 02:48:19;;;;;;;14.13;3.20;;;6.50;99.90;;;;;;4939350;29;20637;-81
2022/01/20 02:50:44;;;;;;;8.63;2.53;;;6.50;99.90;;;;;;4939378;29;20198;-82
2022/01/20 02:53:10;;;;;;;12.57;2.63;;;6.60;99.90;;;;;;4939400;29;20203;-81
2022/01/20 02:55:36;;;;;;;15.63;3.43;;;6.60;99.90;;;;;;4956105;29;20187;-82
2022/01/20 02:58:02;;;;;;;18.73;2.67;;;6.50;99.90;;;;;;4939435;29;20331;-82
2022/01/20 03:00:28;;;;;;;9.90;2.47;;;6.40;99.90;;;;;;4939083;29;20231;-82
2022/01/20 03:02:55;;;;;;;14.90;2.70;;;6.40;99.90;;;;;;4939153;29;20656;-81
2022/01/20 03:05:21;;;;;;;6.43;2.23;;;6.30;99.90;;;;;;4938893;29;20188;-81
2022/01/20 03:07:47;;;;;;;18.70;2.70;;;6.40;99.90;;;;;;4939193;29;20176;-82
2022/01/20 03:10:13;;;;;;;11.37;2.37;;;6.40;99.90;;;;;;4938806;29;20530;-81
2022/01/20 03:12:38;;;;;;;18.83;4.33;;;6.40;99.90;;;;;;4939035;29;20201;-82
2022/01/20 03:15:04;;;;;;;10.53;2.47;;;6.50;99.90;;;;;;4938803;29;20213;-82
2022/01/20 03:17:32;;;;;;;11.43;2.17;;;6.60;99.90;;;;;;4939034;29;20183;-82
2022/01/20 03:19:58;;;;;;;12.37;2.73;;;6.50;99.90;;;;;;4938896;29;20613;-82
2022/01/20 03:22:24;;;;;;;15.00;1.87;;;6.40;99.90;;;;;;4938881;29;20196;-82
2022/01/20 03:24:50;;;;;;;13.20;2.50;;;6.40;99.90;;;;;;4938426;29;20175;-82
2022/01/20 03:27:16;;;;;;;12.23;1.90;;;6.40;99.90;;;;;;4937876;29;20191;-82
2022/01/20 03:29:41;;;;;;;11.27;2.07;;;6.50;99.90;;;;;;4938947;29;20215;-82
2022/01/20 03:32:07;;;;;;;14.33;2.80;;;6.50;99.90;;;;;;4938621;29;20184;-82
2022/01/20 03:34:33;;;;;;;11.53;2.63;;;6.60;99.90;;;;;;4939102;29;20299;-81
2022/01/20 03:37:00;;;;;;;6.00;2.47;;;6.60;99.90;;;;;;4938640;29;20195;-82
2022/01/20 03:39:25;;;;;;;9.07;3.43;;;6.50;99.90;;;;;;4938385;29;20549;-82
2022/01/20 03:41:51;;;;;;;8.07;3.57;;;6.30;99.90;;;;;;4938317;29;20219;-82
2022/01/20 03:44:16;;;;;;;10.37;3.97;;;6.20;99.90;;;;;;4938485;29;20183;-82
2022/01/20 03:46:42;;;;;;;13.27;4.10;;;6.20;99.90;;;;;;4938524;29;20258;-82
2022/01/20 03:49:13;;;;;;;10.73;3.97;;;6.20;99.90;;;;;;4938316;29;20195;-82
2022/01/20 03:51:38;;;;;;;9.73;4.13;;;6.20;99.90;;;;;;4938063;29;20183;-82
2022/01/20 03:54:05;;;;;;;11.03;4.20;;;6.30;99.90;;;;;;4938025;29;20553;-82
2022/01/20 03:56:31;;;;;;;8.83;4.47;;;6.40;99.90;;;;;;4938193;29;20626;-81
2022/01/20 03:58:56;;;;;;;13.50;4.30;;;6.40;99.90;;;;;;4938671;29;20250;-82
2022/01/20 04:01:22;;;;;;;9.87;3.80;;;6.40;99.90;;;;;;4937849;29;20688;-82
2022/01/20 04:03:48;;;;;;;11.60;3.40;;;6.40;99.90;;;;;;4955535;29;20220;-82
2022/01/20 04:06:14;;;;;;;11.47;3.20;;;6.40;99.90;;;;;;4955196;29;20171;-82
2022/01/20 04:08:44;;;;;;;9.57;3.87;;;6.30;99.90;;;;;;4937694;29;20270;-82
2022/01/20 04:11:16;;;;;;;15.07;3.53;;;6.30;99.90;;;;;;4937618;29;20652;-82
2022/01/20 04:13:42;;;;;;;11.20;2.77;;;6.20;99.90;;;;;;4955150;29;20171;-82
2022/01/20 04:16:13;;;;;;;12.20;3.03;;;6.20;99.90;;;;;;4937711;29;20210;-82
2022/01/20 04:18:51;;;;;;;8.93;3.30;;;6.30;99.90;;;;;;4955348;29;20170;-81
2022/01/20 04:21:21;;;;;;;10.70;2.63;;;6.40;99.90;;;;;;4954889;29;20672;-82
2022/01/20 04:23:47;;;;;;;10.73;2.77;;;6.40;99.90;;;;;;4954758;29;20167;-82
2022/01/20 04:26:13;;;;;;;8.87;2.50;;;6.30;99.90;;;;;;4954915;29;20185;-82
2022/01/20 04:28:38;;;;;;;11.87;2.83;;;6.30;99.90;;;;;;4937739;29;20576;-82
2022/01/20 04:31:04;;;;;;;10.70;2.80;;;6.30;99.90;;;;;;4954636;29;20265;-81
2022/01/20 04:33:30;;;;;;;14.13;3.50;;;6.30;99.90;;;;;;4937601;29;20195;-83
2022/01/20 04:35:55;;;;;;;16.30;2.60;;;6.40;99.90;;;;;;4954995;29;20183;-81
2022/01/20 04:38:21;;;;;;;10.13;2.50;;;6.40;99.90;;;;;;4936884;29;20183;-82
2022/01/20 04:40:47;;;;;;;14.40;2.77;;;6.40;99.90;;;;;;4954647;29;20224;-82
2022/01/20 04:43:12;;;;;;;14.53;2.50;;;6.40;99.90;;;;;;4937659;29;20176;-81
2022/01/20 04:45:46;;;;;;;12.60;2.70;;;6.50;99.90;;;;;;4937601;29;20179;-82
2022/01/20 04:48:21;;;;;;;17.33;2.73;;;6.40;99.90;;;;;;4937394;29;20221;-82
2022/01/20 04:59:00;;;;;;;9.53;1.83;;;6.10;99.90;;;;;;4954859;29;20174;-81
2022/01/20 05:01:25;;;;;;;12.50;2.40;;;6.00;99.90;;;;;;4937091;29;20211;-81
2022/01/20 05:03:51;;;;;;;12.83;3.03;;;6.10;99.90;;;;;;4937320;29;20194;-82
2022/01/20 05:06:17;;;;;;;12.77;2.60;;;6.10;99.90;;;;;;4954468;29;20632;-81
2022/01/20 05:08:42;;;;;;;11.30;3.00;;;6.10;99.90;;;;;;4937159;29;20286;-82
2022/01/20 05:11:09;;;;;;;16.97;3.67;;;6.10;99.90;;;;;;4937201;29;20194;-82
2022/01/20 05:13:40;;;;;;;18.50;4.70;;;6.00;99.90;;;;;;4937087;29;20206;-83
2022/01/20 05:16:06;;;;;;;14.37;3.30;;;5.90;99.90;;;;;;4937635;29;20274;-82
2022/01/20 05:18:32;;;;;;;12.40;3.53;;;6.00;99.90;;;;;;4937339;29;20265;-82
2022/01/20 05:20:57;;;;;;;17.70;3.07;;;6.00;99.90;;;;;;4936937;29;20688;-82
2022/01/20 05:23:23;;;;;;;21.10;3.63;;;6.00;99.90;;;;;;4954243;29;20212;-82
2022/01/20 05:25:49;;;;;;;15.10;3.10;;;6.00;99.90;;;;;;4937330;29;20688;-82
2022/01/20 05:28:14;;;;;;;17.10;3.33;;;6.00;99.90;;;;;;4936797;29;20525;-82
2022/01/20 05:30:40;;;;;;;17.70;4.17;;;6.00;99.90;;;;;;4954270;29;20175;-82
2022/01/20 05:33:07;;;;;;;16.80;3.07;;;6.10;99.90;;;;;;4937198;29;20188;-82
2022/01/20 05:35:32;;;;;;;13.40;3.90;;;6.10;99.90;;;;;;4936823;29;20195;-82
2022/01/20 05:37:58;;;;;;;14.17;3.00;;;6.10;99.90;;;;;;4937009;29;20183;-81
2022/01/20 05:40:24;;;;;;;15.37;2.73;;;6.00;99.90;;;;;;4936986;29;20762;-82
2022/01/20 05:42:51;;;;;;;19.00;3.87;;;6.20;99.90;;;;;;4937052;29;20237;-82
2022/01/20 05:45:16;;;;;;;13.63;3.63;;;6.20;99.90;;;;;;4936909;29;20183;-82
2022/01/20 05:47:47;;;;;;;13.47;3.50;;;6.20;99.90;;;;;;4936708;29;20243;-82
2022/01/20 05:50:18;;;;;;;12.93;4.40;;;6.30;99.90;;;;;;4955323;28;20210;-82
2022/01/20 05:52:45;;;;;;;14.67;3.37;;;6.30;99.90;;;;;;4940425;29;20326;-82
2022/01/20 05:55:16;;;;;;;15.93;4.57;;;6.30;99.90;;;;;;4957726;29;20179;-82
2022/01/20 05:57:42;;;;;;;21.10;3.33;;;6.20;99.90;;;;;;4940314;29;20650;-82
2022/01/20 06:00:12;;;;;;;17.23;3.43;;;6.00;99.90;;;;;;4957360;29;20281;-81
2022/01/20 06:03:36;;;;;;;20.70;3.53;;;6.10;99.90;;;;;;4940163;29;20200;-82
2022/01/20 06:05:24;;;;;;;11.97;2.53;;;6.20;99.90;;;;;;4956879;29;20190;-82
2022/01/20 06:07:50;;;;;;;17.53;3.30;;;6.20;99.90;;;;;;4957399;29;20639;-84
2022/01/20 06:10:15;;;;;;;16.53;3.80;;;6.30;99.90;;;;;;4957209;29;20171;-82
2022/01/20 06:12:41;;;;;;;15.67;3.17;;;6.30;99.90;;;;;;4940185;29;20190;-82
2022/01/20 06:15:07;;;;;;;25.33;3.80;;;6.50;99.90;;;;;;4956695;29;20194;-82
2022/01/20 06:17:36;;;;;;;19.30;3.37;;;6.50;99.90;;;;;;4957193;29;20179;-83
2022/01/20 06:20:02;;;;;;;19.97;3.23;;;6.50;99.90;;;;;;4939583;29;20545;-83
2022/01/20 06:22:28;;;;;;;17.10;2.70;;;6.50;99.90;;;;;;4940266;29;20194;-82
2022/01/20 06:24:53;;;;;;;8.77;2.00;;;6.40;99.90;;;;;;4939982;29;20183;-82
2022/01/20 06:27:19;;;;;;;14.57;2.03;;;6.10;99.90;;;;;;4939936;29;20215;-82
2022/01/20 06:29:46;;;;;;;11.77;2.03;;;6.10;99.90;;;;;;4938895;29;20179;-82
2022/01/20 06:32:11;;;;;;;17.67;2.37;;;6.10;99.90;;;;;;4938939;29;20184;-83
2022/01/20 06:34:37;;;;;;;14.10;1.63;;;6.10;99.90;;;;;;4935368;29;20250;-82
2022/01/20 06:37:03;;;;;;;13.03;2.47;;;6.10;99.90;;;;;;4953503;29;20186;-83
2022/01/20 06:39:28;;;;;;;9.00;2.03;;;6.10;99.90;;;;;;4937882;29;20187;-82
2022/01/20 06:41:54;;;;;;;11.13;1.80;;;6.20;99.90;;;;;;4938791;29;20218;-82
2022/01/20 06:44:21;;;;;;;11.77;1.80;;;6.30;99.90;;;;;;4938747;29;20193;-83
2022/01/20 06:46:48;;;;;;;10.93;1.60;;;6.40;99.90;;;;;;4939027;29;20242;-82
2022/01/20 06:49:14;;;;;;;13.80;1.60;;;6.50;99.90;;;;;;4938733;29;20215;-83
2022/01/20 06:51:40;;;;;;;11.57;1.53;;;6.50;99.90;;;;;;4939048;29;20202;-82
2022/01/20 06:54:06;;;;;;;12.80;1.50;;;6.40;99.90;;;;;;4938839;29;20179;-83
2022/01/20 06:56:32;;;;;;;13.07;1.47;;;6.40;99.90;;;;;;4939521;29;20178;-82
2022/01/20 06:58:58;;;;;;;10.27;1.40;;;6.40;99.90;;;;;;4938712;29;20665;-82
2022/01/20 07:01:24;;;;;;;9.40;1.80;;;6.50;99.90;;;;;;4938922;29;20242;-82
2022/01/20 07:03:49;;;;;;;7.67;1.20;;;6.60;99.90;;;;;;4955876;29;20636;-82
2022/01/20 07:06:15;;;;;;;7.40;1.27;;;6.70;99.90;;;;;;4956153;29;20586;-83
2022/01/20 07:08:40;;;;;;;10.47;1.50;;;6.70;99.90;;;;;;4938981;29;20178;-81
2022/01/20 07:11:06;;;;;;;11.90;1.40;;;6.60;99.90;;;;;;4938817;29;20215;-82
2022/01/20 07:13:32;;;;;;;7.77;1.63;;;6.60;99.90;;;;;;4938895;29;20291;-82
2022/01/20 07:15:58;;;;;;;13.23;1.80;;;6.50;99.90;;;;;;4938747;29;20183;-82
2022/01/20 07:18:23;;;;;;;11.57;1.40;;;6.50;99.90;;;;;;4938280;29;20183;-82
2022/01/20 07:20:49;;;;;;;14.40;2.03;;;6.50;99.90;;;;;;4936295;28;20270;-82
2022/01/20 07:23:14;;;;;;;10.20;1.43;;;6.60;99.90;;;;;;4946839;28;20190;-83
2022/01/20 07:25:40;;;;;;;7.03;1.37;;;6.60;99.90;;;;;;4946073;28;20183;-83
2022/01/20 07:28:05;;;;;;;9.53;2.23;;;6.60;99.90;;;;;;4944435;29;20684;-82
2022/01/20 07:30:31;;;;;;;8.53;2.60;;;6.60;99.90;;;;;;4938280;29;20183;-83
2022/01/20 07:40:43;;;;;;;11.67;1.43;;;6.40;99.90;;;;;;5444939;23;20609;-90
2022/01/20 07:43:21;;;;;;;9.47;1.23;;;6.50;99.90;;;;;;4955157;29;20187;-94
2022/01/20 07:45:46;;;;;;;13.27;1.90;;;6.50;99.90;;;;;;4954944;29;20179;-87
2022/01/20 07:48:12;;;;;;;5.57;1.80;;;6.50;99.90;;;;;;4954540;29;20191;-89
2022/01/20 07:50:38;;;;;;;7.43;1.43;;;6.40;99.90;;;;;;4954571;29;20270;-87
2022/01/20 07:53:05;;;;;;;10.57;2.50;;;6.40;99.90;;;;;;4961559;29;20195;-96
2022/01/20 07:55:33;;;;;;;11.17;2.17;;;6.50;99.90;;;;;;4963176;29;20179;-96
2022/01/20 07:57:59;;;;;;;8.30;1.80;;;6.50;99.90;;;;;;4969706;29;20215;-95
2022/01/20 08:00:27;;;;;;;6.33;1.57;;;6.60;99.90;;;;;;4957044;29;20227;-96
2022/01/20 08:02:53;;;;;;;19.67;3.37;;;6.70;99.90;;;;;;4969375;29;20206;-95
2022/01/20 08:05:22;;;;;;;6.87;1.30;;;6.80;99.90;;;;;;4966647;29;20223;-96
2022/01/20 08:07:48;;;;;;;10.00;1.80;;;6.80;99.90;;;;;;4947313;28;20200;-94
2022/01/20 08:10:14;;;;;;;18.20;2.63;;;6.70;99.90;;;;;;4971819;29;20196;-96
2022/01/20 08:12:43;;;;;;;19.67;2.90;;;6.50;99.90;;;;;;4954402;28;20191;-96
2022/01/20 08:15:12;;;;;;;11.80;2.10;;;6.50;99.90;;;;;;4954689;28;20180;-95
2022/01/20 08:17:39;;;;;;;12.90;1.97;;;6.50;99.90;;;;;;4971217;29;20176;-96
2022/01/20 08:20:33;;;;;;;8.53;1.90;;;6.50;99.90;;;;;;4972496;28;20211;-96
2022/01/20 08:22:59;;;;;;;13.53;2.43;;;6.50;99.90;;;;;;4957443;29;20203;-94
2022/01/20 08:25:26;;;;;;;17.53;2.47;;;6.70;99.90;;;;;;4944340;29;20191;-92
2022/01/20 08:27:55;;;;;;;15.70;2.20;;;6.60;99.90;;;;;;4948492;29;20196;-96
2022/01/20 08:30:22;;;;;;;12.80;2.17;;;6.80;99.90;;;;;;4956618;29;20183;-96
2022/01/20 08:32:49;;;;;;;14.03;1.93;;;6.90;99.90;;;;;;4973637;29;20417;-94
2022/01/20 08:35:16;;;;;;;13.23;2.33;;;7.00;99.90;;;;;;4974322;29;20176;-96
2022/01/20 08:37:45;;;;;;;16.07;1.97;;;7.00;99.90;;;;;;4969077;28;20180;-96
2022/01/20 08:40:52;;;;;;;10.93;2.00;;;6.90;99.90;;;;;;4967642;28;20695;-95
2022/01/20 11:49:45;;;;;;;8.13;1.60;;;8.10;99.90;;;;;;5998607;23;20414;31
2022/01/20 13:07:33;;;;;;;8.60;1.63;;;11.40;98.70;;;;;;6018134;23;20192;-93
2022/01/20 13:10:06;;;;;;;5.63;1.10;;;10.60;99.90;;;;;;4938001;29;20213;-87
2022/01/20 13:12:40;;;;;;;8.30;1.40;;;10.10;99.90;;;;;;4955060;29;20174;-87
2022/01/20 13:15:18;;;;;;;8.73;1.70;;;9.60;99.90;;;;;;4938137;29;20182;-87
2022/01/20 13:17:46;;;;;;;6.67;1.33;;;9.40;99.90;;;;;;4955105;29;20220;-87
2022/01/20 13:20:15;;;;;;;9.83;1.70;;;9.00;99.90;;;;;;4937730;29;20180;-88
2022/01/20 13:22:54;;;;;;;6.83;1.43;;;8.80;99.90;;;;;;4955080;29;20267;-87
2022/01/20 13:25:26;;;;;;;5.37;1.30;;;8.60;99.90;;;;;;4938054;29;20207;-88
2022/01/20 13:27:58;;;;;;;8.30;1.50;;;8.60;99.90;;;;;;4937818;29;20533;-86
2022/01/20 13:30:40;;;;;;;8.87;1.57;;;8.70;99.90;;;;;;4954871;29;20195;-88
2022/01/20 13:33:22;;;;;;;6.40;1.60;;;8.80;99.90;;;;;;4955066;29;20265;-85
2022/01/20 13:35:53;;;;;;;10.10;1.90;;;8.80;99.90;;;;;;4955125;29;20228;-87
2022/01/20 13:38:19;;;;;;;10.07;1.93;;;8.90;99.90;;;;;;4954655;29;20710;-87
2022/01/20 13:40:47;;;;;;;4.87;1.20;;;9.10;99.90;;;;;;4937941;29;20669;-88
2022/01/20 13:46:00;;;;;;;8.27;1.60;;;9.20;99.90;;;;;;4954916;29;20654;-87
2022/01/20 13:48:28;;;;;;;7.53;1.27;;;9.10;99.90;;;;;;4937505;29;20177;-88
2022/01/20 13:50:56;;;;;;;11.53;1.10;;;9.10;99.90;;;;;;4937845;28;20220;-87
2022/01/20 13:53:26;;;;;;;12.63;1.53;;;8.80;99.90;;;;;;4937466;29;20713;-87
2022/01/20 13:55:52;;;;;;;10.17;1.70;;;8.80;99.90;;;;;;4937891;29;20185;-87
2022/01/20 13:58:35;;;;;;;12.20;1.50;;;8.80;99.90;;;;;;4937700;29;20181;-87
2022/01/20 14:01:08;;;;;;;9.33;1.60;;;8.60;99.90;;;;;;4937501;29;20268;-87
2022/01/20 14:03:39;;;;;;;5.47;0.80;;;8.40;99.90;;;;;;4954366;29;20179;-87
2022/01/20 14:06:06;;;;;;;9.63;1.03;;;7.90;99.90;;;;;;4937669;29;20188;-86
2022/01/20 14:08:35;;;;;;;3.80;0.60;;;7.50;99.90;;;;;;4937562;29;20262;-86
2022/01/20 14:11:01;;;;;;;2.00;0.60;;;7.40;99.90;;;;;;4938610;29;20279;-86
2022/01/20 14:13:26;;;;;;;4.47;0.80;;;7.40;99.90;;;;;;4957947;29;20266;-86
2022/01/20 14:15:53;;;;;;;7.87;1.57;;;7.40;99.90;;;;;;4940942;29;20230;-87
2022/01/20 14:18:21;;;;;;;4.87;1.00;;;7.50;99.90;;;;;;4940747;29;20195;-86
2022/01/20 14:20:47;;;;;;;6.70;1.33;;;7.60;99.90;;;;;;4957678;29;20638;-86
2022/01/20 14:23:13;;;;;;;5.60;1.23;;;7.60;99.90;;;;;;4940673;29;20214;-87
2022/01/20 14:25:42;;;;;;;10.13;1.10;;;7.60;99.90;;;;;;4941125;29;20184;-87
2022/01/20 14:28:08;;;;;;;8.27;1.67;;;7.40;99.90;;;;;;4957022;29;20184;-87
2022/01/20 14:30:35;;;;;;;5.97;1.40;;;7.40;99.90;;;;;;4957805;29;20180;-87
2022/01/20 14:33:02;;;;;;;9.77;1.43;;;7.50;99.90;;;;;;4940390;29;20183;-88
2022/01/20 14:35:29;;;;;;;15.30;1.40;;;7.50;99.90;;;;;;4940687;29;20176;-87
2022/01/20 14:37:55;;;;;;;7.93;1.30;;;7.50;99.90;;;;;;4940672;29;20206;-87
2022/01/20 14:40:22;;;;;;;8.60;1.40;;;7.30;99.90;;;;;;4957421;29;20286;-86
2022/01/20 14:42:50;;;;;;;8.60;1.20;;;7.30;99.90;;;;;;4957761;29;20229;-86
2022/01/20 14:45:20;;;;;;;8.50;1.70;;;7.50;99.90;;;;;;4957555;29;20178;-88
2022/01/20 14:47:47;;;;;;;6.13;1.37;;;7.60;99.90;;;;;;4940220;29;20550;-87
2022/01/20 14:50:14;;;;;;;8.80;1.80;;;7.80;99.90;;;;;;4940335;29;20186;-86
2022/01/20 14:52:39;;;;;;;8.73;2.00;;;8.00;99.90;;;;;;4940323;29;20205;-88
2022/01/20 14:55:07;;;;;;;8.93;1.43;;;7.90;99.90;;;;;;4940115;29;20191;-87
2022/01/20 14:57:33;;;;;;;7.37;1.63;;;7.90;99.90;;;;;;4940376;29;20181;-87
2022/01/20 15:00:00;;;;;;;9.93;1.20;;;8.00;99.90;;;;;;4940162;29;20187;-86
2022/01/20 15:02:25;;;;;;;7.97;1.30;;;8.00;99.90;;;;;;4940463;29;20193;-87
2022/01/20 15:04:52;;;;;;;13.93;1.93;;;8.10;99.90;;;;;;4940184;29;20180;-88
2022/01/20 15:07:18;;;;;;;5.60;0.90;;;8.10;99.90;;;;;;4940009;29;20195;-87
2022/01/20 15:09:44;;;;;;;7.10;0.90;;;7.90;99.90;;;;;;4940140;29;20286;-87
2022/01/20 15:12:10;;;;;;;5.40;1.37;;;7.70;99.90;;;;;;4939869;29;20270;-86
2022/01/20 15:14:37;;;;;;;8.10;1.17;;;7.90;99.90;;;;;;4955866;29;20184;-88
2022/01/20 15:17:03;;;;;;;7.40;1.57;;;7.80;99.90;;;;;;4939426;29;20184;-87
2022/01/20 15:19:28;;;;;;;4.33;1.40;;;7.90;99.90;;;;;;4939929;29;20190;-86
2022/01/20 15:21:54;;;;;;;8.13;1.13;;;8.10;99.90;;;;;;4955110;28;20589;-87
2022/01/20 15:24:19;;;;;;;8.67;1.20;;;8.00;99.90;;;;;;4939092;29;20641;-86
2022/01/20 15:26:45;;;;;;;8.33;1.33;;;8.00;99.90;;;;;;4939835;29;20704;-87
2022/01/20 15:29:11;;;;;;;6.00;1.13;;;7.90;99.90;;;;;;4939811;29;20256;-86
2022/01/20 15:31:37;;;;;;;10.00;1.57;;;8.00;99.90;;;;;;4939353;29;20218;-88
2022/01/20 15:34:08;;;;;;;8.33;1.40;;;8.00;99.90;;;;;;4939666;29;20210;-87
2022/01/20 15:36:35;;;;;;;5.43;1.13;;;8.00;99.90;;;;;;4956565;29;20623;-86
2022/01/20 15:39:03;;;;;;;9.00;1.43;;;8.10;99.90;;;;;;4939726;29;20195;-87
2022/01/20 15:41:30;;;;;;;8.13;1.30;;;8.20;99.90;;;;;;4939171;29;20219;-87
2022/01/20 15:43:56;;;;;;;5.47;1.23;;;8.10;99.90;;;;;;4939242;29;20191;-87
2022/01/20 15:46:21;;;;;;;5.73;0.97;;;7.90;99.90;;;;;;4939168;29;20213;-87
2022/01/20 15:48:47;;;;;;;6.40;0.90;;;7.90;99.90;;;;;;4955456;29;20183;-87
2022/01/20 15:51:13;;;;;;;5.00;1.20;;;8.00;99.90;;;;;;4939090;29;20227;-87
2022/01/20 15:53:38;;;;;;;9.20;1.00;;;7.90;99.90;;;;;;4939162;29;20178;-87
2022/01/20 15:56:04;;;;;;;5.83;0.93;;;8.00;99.90;;;;;;4939401;29;20644;-88
2022/01/20 15:58:30;;;;;;;5.70;1.03;;;7.90;99.90;;;;;;4955048;29;20199;-87
2022/01/20 16:00:56;;;;;;;3.77;1.17;;;7.90;99.90;;;;;;4938928;29;20214;-86
2022/01/20 16:03:22;;;;;;;10.37;2.07;;;7.90;99.90;;;;;;4939000;29;20175;-87
2022/01/20 16:05:47;;;;;;;10.10;1.37;;;7.90;99.90;;;;;;4939167;29;20188;-87
2022/01/20 16:08:14;;;;;;;5.63;1.30;;;7.90;99.90;;;;;;4954575;29;20203;-87
2022/01/20 16:10:43;;;;;;;6.63;1.53;;;7.80;99.90;;;;;;4938920;29;20431;-87
2022/01/20 16:13:10;;;;;;;10.73;2.10;;;7.60;99.90;;;;;;4938647;29;20286;-87
2022/01/20 16:15:37;;;;;;;4.43;1.30;;;7.40;99.90;;;;;;4938798;29;20175;-87
2022/01/20 16:18:05;;;;;;;4.37;1.57;;;7.40;99.90;;;;;;4938824;29;20187;-87
2022/01/20 16:20:31;;;;;;;4.13;1.03;;;7.40;99.90;;;;;;4938513;29;20201;-86
2022/01/20 16:22:56;;;;;;;6.13;1.47;;;7.30;99.90;;;;;;4955808;29;20167;-86
2022/01/20 16:25:22;;;;;;;6.37;1.43;;;7.20;99.90;;;;;;4938659;29;20179;-89
2022/01/20 16:27:48;;;;;;;9.87;1.40;;;7.20;99.90;;;;;;4938363;29;20184;-88
2022/01/20 16:30:15;;;;;;;7.07;1.40;;;7.20;99.90;;;;;;4938819;29;20647;-89
2022/01/20 16:32:40;;;;;;;3.13;1.70;;;7.10;99.90;;;;;;4938605;29;20304;-89
2022/01/20 16:35:07;;;;;;;6.73;1.90;;;7.20;99.90;;;;;;4938255;29;20215;-86
2022/01/20 16:37:33;;;;;;;4.70;1.80;;;7.10;99.90;;;;;;4938538;29;20186;-89
2022/01/20 16:39:59;;;;;;;7.00;1.93;;;7.10;99.90;;;;;;4938578;29;20172;-86
2022/01/20 16:42:24;;;;;;;6.60;1.27;;;7.00;99.90;;;;;;4938145;29;20222;-87
2022/01/20 16:44:51;;;;;;;4.33;1.50;;;7.00;99.90;;;;;;4938590;29;20183;-88
2022/01/20 16:47:17;;;;;;;8.07;1.73;;;6.80;99.90;;;;;;4938525;29;20190;-88
2022/01/20 16:49:43;;;;;;;5.83;1.90;;;6.80;99.90;;;;;;4938981;29;20271;-89
2022/01/20 16:52:09;;;;;;;5.70;1.43;;;6.80;99.90;;;;;;4938161;29;20721;-88
2022/01/20 16:54:35;;;;;;;10.83;1.50;;;6.80;99.90;;;;;;4938542;29;20179;-87
2022/01/20 16:57:00;;;;;;;8.63;2.03;;;6.70;99.90;;;;;;4938374;29;20643;-89
2022/01/20 16:59:26;;;;;;;7.87;1.40;;;6.60;99.90;;;;;;4938168;29;20183;-88
2022/01/20 17:01:52;;;;;;;7.33;1.47;;;6.40;99.90;;;;;;4938326;29;20582;-87
2022/01/20 17:04:17;;;;;;;7.20;1.80;;;6.50;99.90;;;;;;4938101;29;20226;-86
2022/01/20 17:06:43;;;;;;;6.27;1.80;;;6.30;99.90;;;;;;4955440;29;20581;-89
2022/01/20 17:09:09;;;;;;;10.63;1.73;;;6.10;99.90;;;;;;4938025;29;20237;-88
2022/01/20 17:11:34;;;;;;;8.03;2.00;;;6.10;99.90;;;;;;4937971;29;20704;-88
2022/01/20 17:14:01;;;;;;;7.70;2.37;;;6.20;99.90;;;;;;4938016;29;20187;-89
2022/01/20 17:16:27;;;;;;;8.97;2.00;;;6.40;99.90;;;;;;4938004;29;20179;-86
2022/01/20 17:18:52;;;;;;;7.33;2.37;;;6.40;99.90;;;;;;4938036;29;20262;-86
2022/01/20 17:21:21;;;;;;;8.10;2.43;;;6.50;99.90;;;;;;4938013;29;20226;-86
2022/01/20 17:23:47;;;;;;;6.10;1.97;;;6.50;99.90;;;;;;4938016;29;20184;-85
2022/01/20 17:26:12;;;;;;;10.97;2.40;;;6.60;99.90;;;;;;4938216;29;20187;-89
2022/01/20 17:28:38;;;;;;;7.30;1.70;;;6.70;99.90;;;;;;4937906;29;20717;-88
2022/01/20 17:31:05;;;;;;;5.73;1.87;;;6.70;99.90;;;;;;4955086;29;20176;-87
2022/01/20 17:33:31;;;;;;;16.83;2.43;;;6.70;99.90;;;;;;4937716;29;20186;-89
2022/01/20 17:35:56;;;;;;;13.20;2.10;;;6.60;99.90;;;;;;4937885;29;20250;-86
2022/01/20 17:38:22;;;;;;;10.50;2.30;;;6.60;99.90;;;;;;4937865;29;20187;-89
2022/01/20 17:40:49;;;;;;;9.07;2.03;;;6.50;99.90;;;;;;4937799;29;20294;-88
2022/01/20 17:43:18;;;;;;;12.43;2.03;;;6.40;99.90;;;;;;4954988;29;20266;-86
2022/01/20 17:45:44;;;;;;;6.37;1.80;;;6.30;99.90;;;;;;4938622;29;20204;-86
2022/01/20 17:48:10;;;;;;;12.23;2.43;;;6.30;99.90;;;;;;4941648;29;20214;-88
2022/01/20 17:50:36;;;;;;;18.50;2.80;;;6.20;99.90;;;;;;4941462;29;20603;-88
2022/01/20 17:53:01;;;;;;;6.07;1.80;;;6.20;99.90;;;;;;4958426;28;20194;-87
2022/01/20 17:55:27;;;;;;;12.47;2.77;;;6.30;99.90;;;;;;4941068;29;20632;-88
2022/01/20 17:57:53;;;;;;;12.93;2.83;;;6.40;99.90;;;;;;4941479;29;20179;-88
2022/01/20 18:00:21;;;;;;;10.23;1.80;;;6.30;99.90;;;;;;4941832;29;20266;-86
2022/01/20 18:02:46;;;;;;;13.73;2.17;;;6.30;99.90;;;;;;4941645;29;20659;-88
2022/01/20 18:05:14;;;;;;;9.00;2.83;;;6.30;99.90;;;;;;4941220;29;20183;-88
2022/01/20 18:07:40;;;;;;;11.07;1.87;;;6.30;99.90;;;;;;4940336;29;20289;-86
2022/01/20 18:10:07;;;;;;;10.60;1.93;;;6.30;99.90;;;;;;4957595;29;20311;-86
2022/01/20 18:12:35;;;;;;;12.90;2.50;;;6.30;99.90;;;;;;4939484;29;20231;-88
2022/01/20 18:15:01;;;;;;;9.40;2.20;;;6.30;99.90;;;;;;4936617;29;20550;-85
2022/01/20 18:17:28;;;;;;;8.73;1.40;;;6.30;99.90;;;;;;4942827;29;20179;-87
2022/01/20 18:19:54;;;;;;;11.27;2.07;;;6.30;99.90;;;;;;4938897;29;20194;-86
2022/01/20 18:22:20;;;;;;;5.00;1.70;;;6.30;99.90;;;;;;4939674;29;20226;-89